Time;durP1;ratioP1;P1;durP2;ratioP2;P2;SDS_P1;SDS_P2;PMS_P1;PMS_P2;Temp;Humidity;BMP_temperature;BMP_pressure;BME280_temperature;BME280_humidity;BME280_pressure;Samples;Min_cycle;Max_cycle;Signal;HPM_P1;HPM_P2
2022/11/20 15:48:17;;;;;;;4.50;0.85;;;;;;;;;;5051740;28;20384;-76
2022/11/20 15:51:01;;;;;;;2.78;0.95;;;;;;;;;;5037788;28;20033;-77
2022/11/20 15:53:27;;;;;;;;;;;;;;;;;;5027337;28;20037;-77
2022/11/20 15:55:52;;;;;;;2.17;0.80;;;;;;;;;;5041880;28;19916;-77
2022/11/20 15:58:17;;;;;;;3.72;0.85;;;;;;;;;;5040516;28;20049;-76
2022/11/20 16:00:44;;;;;;;10.13;1.20;;;;;;;;;;5036642;28;20043;-77
2022/11/20 16:03:11;;;;;;;11.52;2.08;;;;;;;;;;5046856;28;20064;-77
2022/11/20 16:05:36;;;;;;;5.93;1.23;;;;;;;;;;5045497;28;20025;-76
2022/11/20 16:08:02;;;;;;;3.45;1.25;;;;;;;;;;5047819;28;20467;-76
2022/11/20 16:10:27;;;;;;;7.22;1.02;;;;;;;;;;5032464;28;20473;-76
2022/11/20 16:15:45;;;;;;;8.30;1.30;;;;;;;;;;5039094;28;20435;-76
2022/11/20 16:18:16;;;;;;;10.75;1.42;;;;;;;;;;5041606;28;20037;-76
2022/11/20 16:20:42;;;;;;;3.35;0.80;;;;;;;;;;5035180;28;20048;-76
2022/11/20 16:23:07;;;;;;;5.75;1.02;;;;;;;;;;5032390;28;20049;-76
2022/11/20 16:25:33;;;;;;;12.40;1.20;;;;;;;;;;5040461;28;20088;-76
2022/11/20 16:27:58;;;;;;;9.10;1.38;;;;;;;;;;5037291;28;20038;-77
2022/11/20 16:30:23;;;;;;;1.30;0.77;;;;;;;;;;5034696;28;20045;-76
2022/11/20 16:32:49;;;;;;;7.47;1.30;;;;;;;;;;5040026;28;20033;-76
2022/11/20 16:35:14;;;;;;;4.57;1.27;;;;;;;;;;5041453;28;20071;-76
2022/11/20 16:37:40;;;;;;;7.78;1.15;;;;;;;;;;5042556;28;20404;-76
2022/11/20 16:40:06;;;;;;;3.58;1.00;;;;;;;;;;5044594;28;20048;-77
2022/11/20 16:42:35;;;;;;;4.03;1.10;;;;;;;;;;5031525;28;20479;-76
2022/11/20 16:45:01;;;;;;;5.28;1.20;;;;;;;;;;5043231;28;20048;-76
2022/11/20 16:47:26;;;;;;;6.28;0.90;;;;;;;;;;5044410;28;20053;-76
2022/11/20 16:49:51;;;;;;;4.97;1.13;;;;;;;;;;5039263;28;20505;-77
2022/11/20 16:52:17;;;;;;;3.80;1.08;;;;;;;;;;5044773;28;20033;-76
2022/11/20 16:54:42;;;;;;;9.82;1.20;;;;;;;;;;5048070;28;20041;-76
2022/11/20 16:57:08;;;;;;;3.63;1.20;;;;;;;;;;5041474;28;20080;-76
2022/11/20 16:59:33;;;;;;;6.22;1.20;;;;;;;;;;5022719;28;20045;-76
2022/11/20 17:01:58;;;;;;;5.30;1.15;;;;;;;;;;5018679;28;20068;-77
2022/11/20 17:04:24;;;;;;;7.90;1.40;;;;;;;;;;5024764;28;20513;-77
2022/11/20 17:06:49;;;;;;;7.80;1.52;;;;;;;;;;5025424;28;20087;-76
2022/11/20 17:09:14;;;;;;;10.93;1.10;;;;;;;;;;5030936;28;20040;-76
2022/11/20 17:11:40;;;;;;;13.52;1.30;;;;;;;;;;5026817;28;20040;-76
2022/11/20 17:14:06;;;;;;;12.05;1.23;;;;;;;;;;5020415;28;20065;-76
2022/11/20 17:16:32;;;;;;;29.73;8.90;;;;;;;;;;5022417;28;20049;-76
2022/11/20 17:18:58;;;;;;;26.55;11.02;;;;;;;;;;5020229;28;20037;-77
2022/11/20 17:21:25;;;;;;;7.32;1.92;;;;;;;;;;5022961;28;20045;-76
2022/11/20 17:23:50;;;;;;;100.55;3.95;;;;;;;;;;5019293;28;20041;-76
2022/11/20 17:26:23;;;;;;;16.73;1.55;;;;;;;;;;5003380;28;20037;-77
2022/11/20 17:28:54;;;;;;;53.58;3.25;;;;;;;;;;5014509;28;20253;-77
2022/11/20 17:31:19;;;;;;;8.00;1.00;;;;;;;;;;5022829;28;20071;-77
2022/11/20 17:33:45;;;;;;;8.38;1.20;;;;;;;;;;5035137;28;20470;-77
2022/11/20 17:36:13;;;;;;;6.82;1.08;;;;;;;;;;5025017;28;20494;-77
2022/11/20 17:38:39;;;;;;;10.85;1.38;;;;;;;;;;5025266;28;20034;-76
2022/11/20 17:41:06;;;;;;;2.85;1.08;;;;;;;;;;5019383;28;20045;-77
2022/11/20 17:43:32;;;;;;;10.88;1.00;;;;;;;;;;5016662;28;20038;-77
2022/11/20 17:45:57;;;;;;;6.45;1.00;;;;;;;;;;5025720;28;20040;-77
2022/11/20 17:48:23;;;;;;;8.30;1.40;;;;;;;;;;5019040;28;20038;-77
2022/11/20 17:50:49;;;;;;;10.27;1.23;;;;;;;;;;5017617;28;20067;-77
2022/11/20 17:53:14;;;;;;;7.20;1.30;;;;;;;;;;5027621;28;20105;-77
2022/11/20 17:58:31;;;;;;;16.88;1.20;;;;;;;;;;5017580;28;20053;-77
2022/11/20 18:01:04;;;;;;;5.68;0.88;;;;;;;;;;5020702;28;20030;-77
2022/11/20 18:03:29;;;;;;;2.55;0.77;;;;;;;;;;5013944;28;20533;-77
2022/11/20 18:05:55;;;;;;;6.47;1.15;;;;;;;;;;5031429;28;20033;-77
2022/11/20 18:08:20;;;;;;;9.77;1.60;;;;;;;;;;5027743;28;20538;-77
2022/11/20 18:10:45;;;;;;;4.43;1.17;;;;;;;;;;5011999;28;20033;-77
2022/11/20 18:13:11;;;;;;;6.32;0.95;;;;;;;;;;5016563;28;20037;-77
2022/11/20 18:15:36;;;;;;;10.05;1.17;;;;;;;;;;5022385;28;20037;-77
2022/11/20 18:18:02;;;;;;;1.20;0.88;;;;;;;;;;5026437;28;20116;-77
2022/11/20 18:20:27;;;;;;;6.88;1.00;;;;;;;;;;5025784;28;20011;-77
2022/11/20 18:22:53;;;;;;;12.00;1.50;;;;;;;;;;5019287;28;20040;-78
2022/11/20 18:25:18;;;;;;;7.38;1.17;;;;;;;;;;5006442;28;20048;-77
2022/11/20 18:27:44;;;;;;;5.47;1.10;;;;;;;;;;5014332;28;20495;-77
2022/11/20 18:30:10;;;;;;;8.02;1.35;;;;;;;;;;5016789;28;20351;-77
2022/11/20 18:32:36;;;;;;;7.57;1.38;;;;;;;;;;5022822;28;20040;-76
2022/11/20 18:35:01;;;;;;;4.55;1.50;;;;;;;;;;5007353;28;20042;-76
2022/11/20 18:37:26;;;;;;;10.02;1.90;;;;;;;;;;5021463;28;20112;-77
2022/11/20 18:39:52;;;;;;;11.80;2.00;;;;;;;;;;5020587;28;20034;-77
2022/11/20 18:45:03;;;;;;;6.32;2.25;;;;;;;;;;4970309;28;20049;-78
2022/11/20 18:47:36;;;;;;;11.98;2.22;;;;;;;;;;5001455;28;20057;-77
2022/11/20 18:50:01;;;;;;;;;;;;;;;;;;4971825;28;20047;-76
2022/11/20 18:52:32;;;;;;;14.00;3.40;;;;;;;;;;4971343;28;20033;-77
2022/11/20 18:54:58;;;;;;;14.65;3.35;;;;;;;;;;4969710;28;20085;-77
2022/11/20 18:57:25;;;;;;;7.03;3.55;;;;;;;;;;4962807;28;20066;-76
2022/11/20 18:59:54;;;;;;;9.85;3.70;;;;;;;;;;5004306;28;20030;-76
2022/11/20 19:02:21;;;;;;;12.73;3.50;;;;;;;;;;4970510;28;20505;-77
2022/11/20 19:04:46;;;;;;;7.25;3.65;;;;;;;;;;4973095;28;20054;-76
2022/11/20 19:07:12;;;;;;;9.40;2.90;;;;;;;;;;4971627;28;20069;-77
2022/11/20 19:09:41;;;;;;;;;;;;;;;;;;4973362;28;20096;-76
2022/11/20 19:12:08;;;;;;;10.40;2.97;;;;;;;;;;4972936;28;20052;-77
2022/11/20 19:14:33;;;;;;;14.60;2.65;;;;;;;;;;4972826;28;20078;-77
2022/11/20 19:16:59;;;;;;;13.32;3.28;;;;;;;;;;4972136;28;20031;-76
2022/11/20 19:19:24;;;;;;;16.77;3.17;;;;;;;;;;4972838;28;20046;-76
2022/11/20 19:21:50;;;;;;;27.00;3.45;;;;;;;;;;4972305;28;20039;-76
2022/11/20 19:24:16;;;;;;;63.45;4.72;;;;;;;;;;4974334;28;20109;-76
2022/11/20 19:26:42;;;;;;;47.58;3.90;;;;;;;;;;4973784;28;20475;-76
2022/11/20 19:29:11;;;;;;;32.50;3.97;;;;;;;;;;4958211;28;20042;-76
2022/11/20 19:31:37;;;;;;;11.88;3.20;;;;;;;;;;4972019;28;20093;-78
2022/11/20 19:34:03;;;;;;;13.23;2.75;;;;;;;;;;4964558;28;20089;-77
2022/11/20 19:36:31;;;;;;;12.23;2.85;;;;;;;;;;4970455;28;20478;-77
2022/11/20 19:38:57;;;;;;;10.95;3.10;;;;;;;;;;4963891;28;20043;-77
2022/11/20 19:41:28;;;;;;;17.33;3.45;;;;;;;;;;4969184;28;20293;-76
2022/11/20 19:44:02;;;;;;;7.90;2.92;;;;;;;;;;4970131;28;20359;-76
2022/11/20 19:46:29;;;;;;;37.25;3.95;;;;;;;;;;4951493;29;20071;-77
2022/11/20 19:48:56;;;;;;;14.50;3.50;;;;;;;;;;4968449;28;20054;-77
2022/11/20 19:51:24;;;;;;;10.43;2.83;;;;;;;;;;4972005;28;20043;-76
2022/11/20 19:53:50;;;;;;;8.30;3.63;;;;;;;;;;4972531;28;20038;-76
2022/11/20 19:56:15;;;;;;;9.77;3.83;;;;;;;;;;4964266;28;20039;-77
2022/11/20 19:58:41;;;;;;;4.95;3.03;;;;;;;;;;4950029;28;20543;-77
2022/11/20 20:01:17;;;;;;;6.95;3.22;;;;;;;;;;4950631;29;20039;-77
2022/11/20 20:03:43;;;;;;;9.70;3.30;;;;;;;;;;4982045;28;20113;-77
2022/11/20 20:06:22;;;;;;;7.75;3.20;;;;;;;;;;4950675;29;20043;-77
2022/11/20 20:09:04;;;;;;;;;;;;;;;;;;4941876;28;20043;-77
2022/11/20 20:11:29;;;;;;;;;;;;;;;;;;4948783;29;20068;-77
2022/11/20 20:13:55;;;;;;;9.63;2.90;;;;;;;;;;4950907;28;20037;-76
2022/11/20 20:16:22;;;;;;;8.53;3.03;;;;;;;;;;4950290;29;20032;-77
2022/11/20 20:18:48;;;;;;;8.70;2.85;;;;;;;;;;4946088;29;20406;-77
2022/11/20 20:21:17;;;;;;;9.10;3.90;;;;;;;;;;4950540;28;20043;-77
2022/11/20 20:23:42;;;;;;;17.00;7.72;;;;;;;;;;4967799;28;20097;-77
2022/11/20 20:26:09;;;;;;;37.30;14.80;;;;;;;;;;4965729;28;20494;-77
2022/11/20 20:28:35;;;;;;;36.87;11.80;;;;;;;;;;4978856;28;20054;-78
2022/11/20 20:31:09;;;;;;;28.87;9.93;;;;;;;;;;4973844;28;20038;-77
2022/11/20 20:33:36;;;;;;;10.80;4.70;;;;;;;;;;4977380;28;20242;-77
2022/11/20 20:36:01;;;;;;;10.75;5.05;;;;;;;;;;4981932;28;20038;-77
2022/11/20 20:38:27;;;;;;;22.08;4.13;;;;;;;;;;4976575;28;20084;-76
2022/11/20 20:40:52;;;;;;;10.15;3.80;;;;;;;;;;4983395;28;20035;-77
2022/11/20 20:43:17;;;;;;;19.42;4.35;;;;;;;;;;4977848;28;20048;-77
2022/11/20 20:45:45;;;;;;;6.83;3.40;;;;;;;;;;4974721;28;20093;-76
2022/11/20 20:48:10;;;;;;;9.50;3.63;;;;;;;;;;4980303;28;19917;-77
2022/11/20 20:50:36;;;;;;;19.20;4.75;;;;;;;;;;4973965;28;19929;-77
2022/11/20 20:53:01;;;;;;;13.85;3.65;;;;;;;;;;4974889;28;20146;-77
2022/11/20 20:55:26;;;;;;;9.57;3.50;;;;;;;;;;4975499;28;20498;-77
2022/11/20 20:57:52;;;;;;;12.90;4.45;;;;;;;;;;4976548;28;19949;-76
2022/11/20 21:00:18;;;;;;;11.20;3.60;;;;;;;;;;4976038;28;20046;-77
2022/11/20 21:02:43;;;;;;;12.65;4.10;;;;;;;;;;5003983;28;20590;-77
2022/11/20 21:05:08;;;;;;;13.50;4.05;;;;;;;;;;4975150;28;20043;-76
2022/11/20 21:08:20;;;;;;;14.30;3.90;;;;;;;;;;4973100;28;20550;-76
2022/11/20 21:10:19;;;;;;;;;;;;;;;;;;4968324;28;20070;-77
2022/11/20 21:12:44;;;;;;;;;;;;;;;;;;4977370;28;20021;-77
2022/11/20 21:15:13;;;;;;;;;;;;;;;;;;4974517;28;20062;-77
2022/11/20 21:17:42;;;;;;;;;;;;;;;;;;4975646;28;20396;-76
2022/11/20 21:21:57;;;;;;;;;;;;;;;;;;4973808;28;20316;-77
2022/11/20 21:22:53;;;;;;;;;;;;;;;;;;4975719;28;20079;-77
2022/11/20 21:25:19;;;;;;;;;;;;;;;;;;4975022;28;20229;-77
2022/11/20 21:27:44;;;;;;;;;;;;;;;;;;4981598;28;20040;-77
2022/11/20 21:30:10;;;;;;;11.70;4.10;;;;;;;;;;4978621;28;20033;-78
2022/11/20 21:32:35;;;;;;;98.50;8.20;;;;;;;;;;4977519;28;20069;-76
2022/11/20 21:35:00;;;;;;;97.50;9.40;;;;;;;;;;4975112;28;20261;-77
2022/11/20 21:37:26;;;;;;;21.60;6.75;;;;;;;;;;4976363;28;20035;-77
2022/11/20 21:39:51;;;;;;;20.70;7.70;;;;;;;;;;4977076;28;20077;-77
2022/11/20 21:42:17;;;;;;;23.55;6.85;;;;;;;;;;4975168;28;19918;-77
2022/11/20 21:44:42;;;;;;;13.30;5.30;;;;;;;;;;4975903;28;20025;-77
2022/11/20 21:47:07;;;;;;;14.75;4.75;;;;;;;;;;4973081;28;20341;-78
2022/11/20 21:49:33;;;;;;;;;;;;;;;;;;4974682;28;19992;-78
2022/11/20 21:51:58;;;;;;;;;;;;;;;;;;4974253;28;20214;-78
2022/11/20 21:54:23;;;;;;;;;;;;;;;;;;4974645;28;25138;-78
2022/11/20 21:56:48;;;;;;;;;;;;;;;;;;4975292;28;20273;-78
2022/11/20 21:59:14;;;;;;;;;;;;;;;;;;4980222;28;20419;-77
2022/11/20 22:01:39;;;;;;;;;;;;;;;;;;4980091;28;24081;-77
2022/11/20 22:04:06;;;;;;;;;;;;;;;;;;5007585;28;25117;-78
2022/11/20 22:06:32;;;;;;;;;;;;;;;;;;4974786;28;20132;-77
2022/11/20 22:08:57;;;;;;;;;;;;;;;;;;5008283;28;25217;-77
2022/11/20 22:11:23;;;;;;;;;;;;;;;;;;4974268;28;20282;-76
2022/11/20 22:16:33;;;;;;;;;;;;;;;;;;4977859;28;20095;-77
2022/11/20 22:18:58;;;;;;;;;;;;;;;;;;4982935;28;25082;-77
2022/11/20 22:21:25;;;;;;;;;;;;;;;;;;4974886;28;20031;-76
2022/11/20 22:23:50;;;;;;;;;;;;;;;;;;5007553;28;20109;-77
2022/11/20 22:26:16;;;;;;;;;;;;;;;;;;4974255;28;24114;-77
2022/11/20 22:28:41;;;;;;;;;;;;;;;;;;5006392;28;24070;-77
2022/11/20 22:31:07;;;;;;;;;;;;;;;;;;4981364;28;25141;-77
2022/11/20 22:33:33;;;;;;;;;;;;;;;;;;5007317;28;20081;-77
2022/11/20 22:35:59;;;;;;;;;;;;;;;;;;5012198;28;19922;-77
2022/11/20 22:38:24;;;;;;;;;;;;;;;;;;4972494;28;20006;-77
2022/11/20 22:40:50;;;;;;;;;;;;;;;;;;4989065;28;19918;-77
2022/11/20 22:43:15;;;;;;;;;;;;;;;;;;4974393;28;20017;-77
2022/11/20 22:45:41;;;;;;;;;;;;;;;;;;4974962;28;20540;-78
2022/11/20 22:48:07;;;;;;;;;;;;;;;;;;4979121;28;25062;-77
2022/11/20 22:50:32;;;;;;;;;;;;;;;;;;4972863;28;19929;-77
2022/11/20 22:52:57;;;;;;;;;;;;;;;;;;4972816;28;20033;-77
2022/11/20 22:55:22;;;;;;;;;;;;;;;;;;4973992;28;19969;-77
2022/11/20 22:57:48;;;;;;;;;;;;;;;;;;4972974;28;20034;-77
2022/11/20 23:00:13;;;;;;;;;;;;;;;;;;5005592;28;20056;-77
2022/11/20 23:02:48;;;;;;;43.60;16.80;;;;;;;;;;5005017;28;25064;-77
2022/11/20 23:05:13;;;;;;;47.05;18.55;;;;;;;;;;4975947;28;20399;-76
2022/11/20 23:07:38;;;;;;;;;;;;;;;;;;4973212;28;20138;-77
2022/11/20 23:10:05;;;;;;;59.60;18.20;;;;;;;;;;4979553;28;20118;-76
2022/11/20 23:12:31;;;;;;;52.35;17.35;;;;;;;;;;4983126;28;20026;-77
2022/11/20 23:14:56;;;;;;;;;;;;;;;;;;4974767;28;20087;-76
2022/11/20 23:17:21;;;;;;;;;;;;;;;;;;4981403;28;20098;-77
2022/11/20 23:19:46;;;;;;;;;;;;;;;;;;4979033;28;25061;-76
2022/11/20 23:22:11;;;;;;;;;;;;;;;;;;4974438;28;19918;-77
2022/11/20 23:24:37;;;;;;;;;;;;;;;;;;4981131;28;20048;-76
2022/11/20 23:27:02;;;;;;;;;;;;;;;;;;4973975;28;20051;-77
2022/11/20 23:29:27;;;;;;;;;;;;;;;;;;4976459;28;20341;-77
2022/11/20 23:31:53;;;;;;;30.75;12.80;;;;;;;;;;4977692;28;20476;-77
2022/11/20 23:34:18;;;;;;;;;;;;;;;;;;4979100;28;20186;-76
2022/11/20 23:36:43;;;;;;;;;;;;;;;;;;5012792;28;20063;-77
2022/11/20 23:39:09;;;;;;;;;;;;;;;;;;4978539;28;24087;-76
2022/11/20 23:41:34;;;;;;;;;;;;;;;;;;4974199;28;20308;-77
2022/11/20 23:43:59;;;;;;;28.85;9.10;;;;;;;;;;4976424;28;20047;-77
2022/11/20 23:46:25;;;;;;;47.70;10.35;;;;;;;;;;4984489;28;20451;-77
2022/11/20 23:48:50;;;;;;;39.83;10.30;;;;;;;;;;4978034;28;20089;-76
2022/11/20 23:51:16;;;;;;;45.30;10.13;;;;;;;;;;4974696;28;20035;-76
2022/11/20 23:53:41;;;;;;;30.23;9.00;;;;;;;;;;4979955;28;20043;-76
2022/11/20 23:56:07;;;;;;;25.92;7.80;;;;;;;;;;4974380;28;20043;-77
2022/11/20 23:58:34;;;;;;;26.45;6.18;;;;;;;;;;4976142;28;20410;-76
